Time;durP1;ratioP1;P1;durP2;ratioP2;P2;SDS_P1;SDS_P2;PMS_P1;PMS_P2;Temp;Humidity;BMP_temperature;BMP_pressure;BME280_temperature;BME280_humidity;BME280_pressure;Samples;Min_cycle;Max_cycle;Signal;HPM_P1;HPM_P2
2021/01/22 00:01:29;;;;;;;1.73;1.50;;;9.00;80.90;;;;;;6373912;27;20020;-81
2021/01/22 00:04:30;;;;;;;1.65;1.55;;;9.10;80.20;;;;;;6373820;27;20389;-79
2021/01/22 00:07:30;;;;;;;1.02;1.00;;;9.30;77.50;;;;;;6373333;27;20029;-78
2021/01/22 00:10:31;;;;;;;1.45;1.35;;;9.60;78.10;;;;;;6354821;27;20047;-78
2021/01/22 00:13:31;;;;;;;1.60;1.50;;;9.80;75.40;;;;;;6374002;27;20459;-80
2021/01/22 00:16:32;;;;;;;1.52;1.30;;;9.70;76.80;;;;;;6373190;27;20019;-79
2021/01/22 00:19:33;;;;;;;4.88;1.50;;;9.70;76.50;;;;;;6373586;27;20437;-80
2021/01/22 00:22:33;;;;;;;1.67;1.50;;;9.70;76.80;;;;;;6373045;27;20030;-77
2021/01/22 00:25:34;;;;;;;1.35;1.25;;;9.60;76.10;;;;;;6373464;27;20023;-78
2021/01/22 00:28:34;;;;;;;1.88;1.50;;;9.80;74.40;;;;;;6372859;27;20019;-80
2021/01/22 00:31:35;;;;;;;1.50;1.40;;;9.90;73.40;;;;;;6354734;27;20011;-79
2021/01/22 00:34:36;;;;;;;1.60;1.50;;;10.20;72.40;;;;;;6373301;27;20031;-78
2021/01/22 00:37:36;;;;;;;1.67;1.38;;;9.90;74.50;;;;;;6372813;27;20030;-76
2021/01/22 00:40:37;;;;;;;4.65;1.80;;;9.90;72.20;;;;;;6372937;27;20406;-81
2021/01/22 00:43:37;;;;;;;3.55;1.75;;;9.90;72.10;;;;;;6372722;27;20023;-78
2021/01/22 00:46:38;;;;;;;4.95;2.03;;;9.90;71.30;;;;;;6354793;28;20122;-78
2021/01/22 00:49:38;;;;;;;3.15;1.85;;;9.90;71.10;;;;;;6372620;28;20023;-78
2021/01/22 00:52:39;;;;;;;2.97;2.13;;;10.00;69.40;;;;;;6372940;28;20021;-78
2021/01/22 00:55:40;;;;;;;15.02;2.72;;;10.10;70.60;;;;;;6372430;28;20035;-79
2021/01/22 00:58:40;;;;;;;6.32;2.17;;;10.30;67.60;;;;;;6372557;28;20020;-78
2021/01/22 01:01:41;;;;;;;8.82;2.20;;;;;;;;;;6372535;28;20509;-78
2021/01/22 01:04:42;;;;;;;4.95;2.22;;;10.30;66.90;;;;;;6372349;28;20073;-80
2021/01/22 01:07:42;;;;;;;7.82;2.72;;;10.30;66.60;;;;;;6372546;28;20027;-80
2021/01/22 01:10:43;;;;;;;5.28;2.53;;;10.40;67.00;;;;;;6372641;28;20129;-79
2021/01/22 01:13:43;;;;;;;5.45;2.38;;;10.30;66.70;;;;;;6372406;27;20042;-81
2021/01/22 01:16:44;;;;;;;4.40;2.05;;;10.30;66.90;;;;;;6353934;28;20027;-78
2021/01/22 01:19:45;;;;;;;6.03;2.00;;;10.30;68.00;;;;;;6373002;28;20023;-79
2021/01/22 01:22:45;;;;;;;5.25;1.83;;;10.30;68.40;;;;;;6372339;27;20020;-81
2021/01/22 01:25:46;;;;;;;5.90;2.65;;;10.20;67.50;;;;;;6372376;28;20454;-79
2021/01/22 01:28:46;;;;;;;7.10;2.60;;;10.10;68.20;;;;;;6372638;28;20019;-79
2021/01/22 01:31:47;;;;;;;3.90;1.90;;;10.30;66.00;;;;;;6372144;28;20073;-79
2021/01/22 01:34:48;;;;;;;4.95;2.30;;;10.40;65.70;;;;;;6354025;28;20095;-81
2021/01/22 01:37:48;;;;;;;6.28;2.42;;;10.40;65.30;;;;;;6372084;27;20068;-78
2021/01/22 01:40:49;;;;;;;7.60;2.28;;;10.40;64.80;;;;;;6372431;28;20046;-81
2021/01/22 01:43:49;;;;;;;5.50;2.22;;;10.40;63.40;;;;;;6372182;27;20023;-78
2021/01/22 01:46:50;;;;;;;5.95;2.28;;;10.40;64.40;;;;;;6372525;28;20026;-78
2021/01/22 01:49:51;;;;;;;11.10;2.75;;;10.40;64.80;;;;;;6371978;27;20022;-81
2021/01/22 01:52:51;;;;;;;9.25;2.50;;;10.40;62.70;;;;;;6358125;27;20023;-81
2021/01/22 01:55:52;;;;;;;9.05;2.47;;;10.50;63.70;;;;;;6358409;27;20449;-82
2021/01/22 01:58:52;;;;;;;7.85;2.20;;;10.50;64.30;;;;;;6358404;27;20022;-78
2021/01/22 02:01:53;;;;;;;3.92;2.10;;;10.40;64.10;;;;;;6358127;27;20028;-78
2021/01/22 02:04:55;;;;;;;7.63;2.70;;;10.40;62.10;;;;;;6357759;27;20043;-78
2021/01/22 02:07:56;;;;;;;6.55;2.50;;;10.60;61.70;;;;;;6376602;27;20114;-79
2021/01/22 02:10:57;;;;;;;9.05;2.65;;;10.60;60.80;;;;;;6376151;27;20024;-78
2021/01/22 02:13:57;;;;;;;5.93;2.30;;;10.70;62.50;;;;;;6340887;27;20036;-78
2021/01/22 02:16:58;;;;;;;4.60;2.30;;;10.60;62.20;;;;;;6376096;27;20027;-79
2021/01/22 02:20:20;;;;;;;4.45;1.67;;;10.50;62.60;;;;;;6340703;27;20023;-79
2021/01/22 02:23:22;;;;;;;6.35;2.10;;;10.60;60.80;;;;;;6375992;27;20399;-79
2021/01/22 02:26:29;;;;;;;5.95;2.47;;;10.50;62.80;;;;;;6357991;27;20023;-80
2021/01/22 02:29:31;;;;;;;4.50;2.10;;;10.10;90.00;;;;;;6375750;27;20099;-82
2021/01/22 02:32:35;;;;;;;4.53;2.05;;;10.10;90.90;;;;;;6357577;27;20023;-79
2021/01/22 02:35:36;;;;;;;9.18;2.17;;;;;;;;;;6375864;27;20092;-79
2021/01/22 02:38:36;;;;;;;4.82;2.20;;;10.30;91.50;;;;;;6357755;27;20446;-79
2021/01/22 02:41:38;;;;;;;4.13;1.83;;;10.30;91.30;;;;;;6340317;27;20031;-81
2021/01/22 02:44:39;;;;;;;5.72;2.30;;;;;;;;;;6357526;27;20027;-82
2021/01/22 02:47:47;;;;;;;8.75;2.20;;;10.20;91.10;;;;;;6357504;27;20033;-82
2021/01/22 02:50:48;;;;;;;6.93;3.85;;;;;;;;;;6357393;27;20022;-79
2021/01/22 02:53:48;;;;;;;7.47;2.80;;;9.90;73.40;;;;;;6375107;27;20031;-79
2021/01/22 02:57:09;;;;;;;3.83;2.05;;;10.20;65.00;;;;;;6375070;27;20019;-79
2021/01/22 03:00:20;;;;;;;4.10;2.20;;;10.20;64.80;;;;;;6359665;27;20024;-79
2021/01/22 03:03:33;;;;;;;4.85;2.72;;;10.10;64.40;;;;;;6356378;27;20080;-79
2021/01/22 03:06:41;;;;;;;6.40;3.05;;;10.10;64.40;;;;;;6374779;27;20046;-78
2021/01/22 03:09:43;;;;;;;5.35;2.67;;;10.10;64.50;;;;;;6339241;27;20023;-81
2021/01/22 03:12:47;;;;;;;7.45;2.90;;;10.10;64.60;;;;;;6374634;27;20047;-81
2021/01/22 03:15:48;;;;;;;5.05;3.22;;;10.00;65.20;;;;;;6339445;27;20081;-81
2021/01/22 03:19:02;;;;;;;7.88;2.88;;;10.00;65.20;;;;;;6356744;27;20098;-78
2021/01/22 03:22:03;;;;;;;2.90;2.40;;;9.90;65.80;;;;;;6374648;27;20015;-79
2021/01/22 03:25:04;;;;;;;5.22;2.60;;;9.90;65.40;;;;;;6374752;27;20026;-79
2021/01/22 03:28:08;;;;;;;3.40;2.47;;;9.90;66.10;;;;;;6374408;27;20027;-79
2021/01/22 03:31:08;;;;;;;6.22;3.25;;;9.90;65.70;;;;;;6374484;27;20030;-81
2021/01/22 03:34:09;;;;;;;2.65;2.30;;;10.00;65.00;;;;;;6374127;27;20465;-79
2021/01/22 03:37:09;;;;;;;2.65;2.00;;;9.90;65.70;;;;;;6374516;27;20023;-78
2021/01/22 03:40:10;;;;;;;5.50;2.17;;;9.90;66.10;;;;;;6374408;27;20023;-79
2021/01/22 03:43:11;;;;;;;2.92;2.10;;;9.90;67.10;;;;;;6374276;27;20030;-79
2021/01/22 03:46:13;;;;;;;3.10;1.67;;;9.80;67.50;;;;;;6374207;27;20509;-79
2021/01/22 03:49:13;;;;;;;4.13;1.93;;;9.80;67.30;;;;;;6374133;27;20022;-81
2021/01/22 03:52:14;;;;;;;2.92;2.00;;;9.80;67.90;;;;;;6355411;27;20024;-80
2021/01/22 03:55:14;;;;;;;3.80;2.00;;;9.80;68.90;;;;;;6373618;27;20667;-82
2021/01/22 03:58:15;;;;;;;2.38;1.75;;;9.70;69.10;;;;;;6373626;27;20050;-79
2021/01/22 04:01:16;;;;;;;3.15;1.85;;;9.70;69.50;;;;;;6373578;27;20023;-81
2021/01/22 04:04:16;;;;;;;2.13;1.83;;;9.70;69.20;;;;;;6373306;27;20801;-80
2021/01/22 04:07:17;;;;;;;1.67;1.58;;;9.70;69.60;;;;;;6373770;27;20407;-80
2021/01/22 04:10:17;;;;;;;2.42;1.90;;;9.70;69.60;;;;;;6373313;27;20109;-81
2021/01/22 04:13:18;;;;;;;2.78;1.75;;;9.70;69.20;;;;;;6373060;27;20376;-82
2021/01/22 04:16:19;;;;;;;4.53;2.47;;;9.70;70.40;;;;;;6373136;27;20031;-79
2021/01/22 04:19:19;;;;;;;2.20;1.60;;;9.80;69.30;;;;;;6373182;27;20023;-79
2021/01/22 04:22:20;;;;;;;1.92;1.77;;;9.80;68.80;;;;;;6373358;27;20023;-81
2021/01/22 04:25:20;;;;;;;2.55;2.05;;;9.80;69.30;;;;;;6373047;27;20138;-79
2021/01/22 04:28:21;;;;;;;1.60;1.50;;;9.80;69.70;;;;;;6373378;27;20046;-80
2021/01/22 04:31:21;;;;;;;2.17;1.67;;;9.80;69.40;;;;;;6372998;27;20060;-79
2021/01/22 04:34:22;;;;;;;1.88;1.50;;;9.80;69.70;;;;;;6373180;27;20027;-82
2021/01/22 04:37:23;;;;;;;4.45;2.10;;;9.80;70.20;;;;;;6373083;27;20442;-79
2021/01/22 04:40:24;;;;;;;2.70;1.60;;;9.70;69.90;;;;;;6372928;27;20023;-79
2021/01/22 04:43:24;;;;;;;3.88;1.60;;;9.80;69.10;;;;;;6372836;27;20031;-82
2021/01/22 04:46:25;;;;;;;3.25;1.60;;;9.80;68.40;;;;;;6354752;28;20160;-81
2021/01/22 04:49:26;;;;;;;4.05;1.92;;;9.80;69.30;;;;;;6354361;28;20514;-80
2021/01/22 04:52:26;;;;;;;4.68;1.85;;;9.40;68.20;;;;;;6337642;28;20098;-79
2021/01/22 04:55:28;;;;;;;4.22;1.67;;;9.80;68.10;;;;;;6354340;28;20080;-82
2021/01/22 04:58:29;;;;;;;3.28;1.88;;;10.00;67.00;;;;;;6354646;28;20102;-81
2021/01/22 05:01:29;;;;;;;4.45;1.80;;;9.90;67.60;;;;;;6337558;28;20019;-79
2021/01/22 05:04:30;;;;;;;7.22;2.47;;;10.10;65.90;;;;;;6354404;28;20047;-82
2021/01/22 05:07:31;;;;;;;4.88;2.15;;;10.20;64.10;;;;;;6372550;27;20389;-80
2021/01/22 05:10:31;;;;;;;3.45;2.17;;;10.20;64.80;;;;;;6372313;28;20096;-79
2021/01/22 05:13:32;;;;;;;7.18;2.28;;;10.20;64.20;;;;;;6372423;28;20035;-79
2021/01/22 05:16:33;;;;;;;3.90;1.98;;;10.20;63.10;;;;;;6354064;28;20286;-79
2021/01/22 05:19:34;;;;;;;4.22;1.92;;;10.00;81.70;;;;;;6372317;28;20024;-80
2021/01/22 05:22:34;;;;;;;3.95;1.85;;;10.00;90.90;;;;;;6372588;27;20019;-78
2021/01/22 05:25:57;;;;;;;3.78;2.05;;;10.10;90.80;;;;;;6354640;27;20076;-79
2021/01/22 05:28:59;;;;;;;5.50;2.00;;;10.10;63.90;;;;;;6377376;27;20023;-78
2021/01/22 05:31:59;;;;;;;4.72;1.80;;;10.00;77.70;;;;;;6377726;27;20027;-79
2021/01/22 05:35:00;;;;;;;5.20;2.30;;;10.20;90.80;;;;;;6377346;27;20031;-79
2021/01/22 05:38:01;;;;;;;2.95;1.88;;;10.20;90.30;;;;;;6377338;27;20019;-79
2021/01/22 05:41:01;;;;;;;3.90;2.15;;;9.90;90.60;;;;;;6377513;27;20023;-82
2021/01/22 05:44:02;;;;;;;2.42;1.85;;;9.90;90.80;;;;;;6342036;27;20080;-79
2021/01/22 05:47:07;;;;;;;4.70;2.00;;;10.00;75.20;;;;;;6377345;27;20365;-79
2021/01/22 05:50:08;;;;;;;3.78;2.00;;;10.20;75.10;;;;;;6376972;27;20127;-79
2021/01/22 05:53:12;;;;;;;6.70;2.20;;;10.00;63.50;;;;;;6377312;27;20027;-78
2021/01/22 05:56:15;;;;;;;8.13;2.50;;;10.00;62.80;;;;;;6377037;27;20076;-81
2021/01/22 05:59:16;;;;;;;9.20;2.55;;;10.20;60.50;;;;;;6377103;27;20015;-79
2021/01/22 06:02:29;;;;;;;5.13;2.50;;;10.30;60.90;;;;;;6377027;27;20507;-79
2021/01/22 06:05:30;;;;;;;8.20;2.47;;;10.40;61.70;;;;;;6376894;27;20471;-82
2021/01/22 06:08:30;;;;;;;4.38;1.98;;;10.40;61.10;;;;;;6358281;27;20030;-79
2021/01/22 06:11:31;;;;;;;6.43;2.30;;;10.40;61.80;;;;;;6376857;27;20042;-79
2021/01/22 06:14:35;;;;;;;3.17;1.92;;;10.30;62.10;;;;;;6358357;27;20482;-79
2021/01/22 06:17:36;;;;;;;3.40;1.83;;;10.30;61.60;;;;;;6341357;27;20036;-79
2021/01/22 06:20:40;;;;;;;2.97;1.80;;;10.30;61.80;;;;;;6341244;27;20031;-81
2021/01/22 06:23:40;;;;;;;5.53;2.10;;;10.30;61.90;;;;;;6358349;27;20020;-79
2021/01/22 06:26:41;;;;;;;3.03;1.60;;;10.30;62.30;;;;;;6341216;27;20027;-79
2021/01/22 06:29:42;;;;;;;3.22;2.03;;;10.30;62.70;;;;;;6376036;27;20030;-80
2021/01/22 06:32:42;;;;;;;3.40;1.88;;;10.30;62.90;;;;;;6340768;27;20030;-79
2021/01/22 06:35:43;;;;;;;4.70;2.05;;;10.30;62.90;;;;;;6340629;27;20361;-79
2021/01/22 06:38:43;;;;;;;3.42;1.70;;;10.30;63.30;;;;;;6340749;27;20019;-80
2021/01/22 06:41:44;;;;;;;3.95;2.10;;;10.20;63.30;;;;;;6376103;27;20050;-80
2021/01/22 06:44:45;;;;;;;3.33;1.90;;;10.20;63.20;;;;;;6340666;27;20019;-79
2021/01/22 06:48:06;;;;;;;3.83;2.10;;;10.20;63.80;;;;;;6375554;27;20569;-80
2021/01/22 06:51:17;;;;;;;3.42;1.70;;;10.20;63.90;;;;;;6375720;27;20023;-79
2021/01/22 06:54:21;;;;;;;2.42;1.83;;;10.10;64.30;;;;;;6375743;27;20073;-81
2021/01/22 06:57:21;;;;;;;2.78;1.80;;;10.10;64.50;;;;;;6375692;27;20098;-79
2021/01/22 07:00:40;;;;;;;3.35;2.63;;;10.00;64.60;;;;;;6357280;27;20022;-82
2021/01/22 07:03:47;;;;;;;2.13;1.77;;;10.00;64.90;;;;;;6375507;27;20098;-79
2021/01/22 07:06:50;;;;;;;5.60;1.75;;;10.00;64.10;;;;;;6375033;27;20121;-79
2021/01/22 07:09:50;;;;;;;;;;;10.10;64.60;;;;;;6375663;27;20140;-79
2021/01/22 07:12:51;;;;;;;2.17;1.95;;;10.00;64.60;;;;;;6375278;27;20237;-78
2021/01/22 07:16:00;;;;;;;3.00;2.47;;;10.00;65.40;;;;;;6356620;27;20501;-79
2021/01/22 07:19:02;;;;;;;4.10;2.22;;;10.00;65.10;;;;;;6375236;27;20026;-79
2021/01/22 07:22:02;;;;;;;1.60;1.50;;;10.00;65.70;;;;;;6356839;27;20034;-79
2021/01/22 07:25:04;;;;;;;2.00;1.80;;;10.30;65.90;;;;;;6339304;27;20031;-79
2021/01/22 07:28:20;;;;;;;3.07;1.80;;;10.10;65.90;;;;;;6374617;27;20027;-82
2021/01/22 07:31:49;;;;;;;2.08;1.70;;;10.10;65.50;;;;;;6374582;27;20019;-79
2021/01/22 07:34:50;;;;;;;2.65;1.48;;;10.10;65.70;;;;;;6374594;27;20027;-80
2021/01/22 07:37:51;;;;;;;4.13;2.10;;;10.10;65.80;;;;;;6374404;27;20016;-79
2021/01/22 07:40:52;;;;;;;2.47;2.03;;;10.10;65.90;;;;;;6374308;27;20457;-82
2021/01/22 07:44:00;;;;;;;2.13;1.95;;;10.10;66.50;;;;;;6356179;27;20023;-79
2021/01/22 07:47:00;;;;;;;1.92;1.60;;;10.10;66.50;;;;;;6374597;27;20019;-81
2021/01/22 07:50:12;;;;;;;3.63;1.88;;;10.10;66.70;;;;;;6373542;27;20027;-79
2021/01/22 07:53:16;;;;;;;1.85;1.75;;;10.10;66.40;;;;;;6374256;27;20026;-79
2021/01/22 07:56:16;;;;;;;2.30;1.60;;;10.10;66.50;;;;;;6373934;27;20118;-78
2021/01/22 07:59:17;;;;;;;2.00;1.80;;;10.20;66.20;;;;;;6355449;27;20033;-79
2021/01/22 08:02:21;;;;;;;1.85;1.67;;;10.30;66.20;;;;;;6355588;27;20361;-79
2021/01/22 08:05:32;;;;;;;1.70;1.60;;;10.20;66.00;;;;;;6373626;27;20043;-81
2021/01/22 08:08:33;;;;;;;2.20;1.77;;;10.30;65.70;;;;;;6374065;27;20046;-81
2021/01/22 08:11:33;;;;;;;1.40;1.40;;;10.40;66.30;;;;;;6355321;27;20052;-79
2021/01/22 08:14:34;;;;;;;2.35;1.70;;;10.50;65.60;;;;;;6373518;27;20682;-79
2021/01/22 08:17:36;;;;;;;1.88;1.70;;;10.50;65.70;;;;;;6373797;27;20027;-78
2021/01/22 08:20:36;;;;;;;1.50;1.40;;;10.50;65.90;;;;;;6355695;27;20020;-79
2021/01/22 08:23:42;;;;;;;3.63;1.80;;;10.40;65.90;;;;;;6355092;27;20461;-79
2021/01/22 08:26:43;;;;;;;1.83;1.73;;;10.50;65.70;;;;;;6373841;27;20019;-78
2021/01/22 08:29:43;;;;;;;1.50;1.40;;;10.50;65.60;;;;;;6354854;27;20034;-80
2021/01/22 08:32:45;;;;;;;2.00;1.80;;;10.50;65.60;;;;;;6355118;27;20027;-79
2021/01/22 08:35:46;;;;;;;2.57;1.70;;;10.60;65.20;;;;;;6354802;27;20354;-79
2021/01/22 08:38:46;;;;;;;2.03;1.92;;;10.60;65.50;;;;;;6354736;27;20292;-80
2021/01/22 08:41:47;;;;;;;2.53;1.88;;;10.70;65.30;;;;;;6373042;27;20026;-78
2021/01/22 08:44:55;;;;;;;2.33;1.75;;;10.70;65.50;;;;;;6373055;27;20027;-79
2021/01/22 08:47:55;;;;;;;2.15;1.77;;;10.70;65.00;;;;;;6354838;28;20118;-81
2021/01/22 08:51:03;;;;;;;2.10;1.63;;;10.60;78.60;;;;;;6354865;28;20435;-81
2021/01/22 08:54:04;;;;;;;2.72;1.52;;;10.70;91.80;;;;;;6373133;28;20067;-79
2021/01/22 08:57:04;;;;;;;2.38;1.65;;;10.60;91.60;;;;;;6354467;28;20023;-80
2021/01/22 09:00:06;;;;;;;1.95;1.75;;;10.40;90.90;;;;;;6354791;27;20474;-79
2021/01/22 09:03:22;;;;;;;2.03;1.80;;;10.70;91.20;;;;;;6377923;27;20058;-78
2021/01/22 09:06:46;;;;;;;2.13;1.92;;;12.10;90.60;;;;;;6378531;27;20099;-79
2021/01/22 09:09:48;;;;;;;2.30;1.80;;;12.40;62.40;;;;;;6359718;27;20043;-78
2021/01/22 09:12:48;;;;;;;2.60;2.38;;;13.70;67.20;;;;;;6378397;27;20469;-77
2021/01/22 09:16:05;;;;;;;2.40;2.20;;;15.00;53.90;;;;;;6359718;27;20091;-78
2021/01/22 09:19:06;;;;;;;2.67;1.92;;;15.20;78.60;;;;;;6361733;27;20023;-76
2021/01/22 09:22:06;;;;;;;1.40;1.30;;;15.00;78.50;;;;;;6377967;27;20449;-81
2021/01/22 09:25:08;;;;;;;1.50;1.40;;;14.70;60.90;;;;;;6377603;27;20227;-79
2021/01/22 09:28:08;;;;;;;1.80;1.50;;;15.50;61.30;;;;;;6377550;27;20031;-77
2021/01/22 09:31:09;;;;;;;1.92;1.50;;;15.00;61.40;;;;;;6359666;27;20385;-76
2021/01/22 09:34:10;;;;;;;1.75;1.63;;;14.70;60.60;;;;;;6377312;27;20469;-80
2021/01/22 09:37:10;;;;;;;1.60;1.50;;;14.70;62.00;;;;;;6377320;27;20023;-77
2021/01/22 09:40:11;;;;;;;2.50;1.40;;;14.70;62.10;;;;;;6359377;27;20046;-79
2021/01/22 09:43:13;;;;;;;2.20;1.55;;;15.10;52.50;;;;;;6377161;27;20032;-82
2021/01/22 09:46:13;;;;;;;1.52;1.42;;;14.90;50.80;;;;;;6377334;27;20019;-79
2021/01/22 09:49:14;;;;;;;2.00;1.85;;;15.00;51.20;;;;;;6341864;27;20472;-80
2021/01/22 09:52:15;;;;;;;4.70;3.92;;;15.00;50.80;;;;;;6377197;27;20024;-84
2021/01/22 09:55:16;;;;;;;2.08;1.92;;;15.10;50.10;;;;;;6358957;27;20047;-83
2021/01/22 09:58:17;;;;;;;3.33;2.78;;;15.20;50.20;;;;;;6377029;27;20023;-80
2021/01/22 10:01:18;;;;;;;2.50;2.30;;;15.50;50.50;;;;;;6358673;27;20457;-79
2021/01/22 10:04:18;;;;;;;3.95;3.25;;;15.90;48.80;;;;;;6376495;27;20057;-83
2021/01/22 10:07:19;;;;;;;2.25;2.00;;;15.70;49.00;;;;;;6358559;27;20410;-82
2021/01/22 10:10:20;;;;;;;1.75;1.65;;;15.80;48.50;;;;;;6376580;27;20019;-83
2021/01/22 10:13:20;;;;;;;1.90;1.80;;;15.90;47.90;;;;;;6375966;27;20077;-80
2021/01/22 10:16:22;;;;;;;1.60;1.50;;;16.20;47.60;;;;;;6376320;27;20032;-79
2021/01/22 10:19:23;;;;;;;3.95;2.20;;;16.50;46.80;;;;;;6358413;27;20071;-81
2021/01/22 10:22:23;;;;;;;1.38;1.27;;;16.80;46.80;;;;;;6358015;27;20462;-80
2021/01/22 10:25:24;;;;;;;1.60;1.50;;;17.10;45.50;;;;;;6376536;27;20023;-80
2021/01/22 10:28:25;;;;;;;2.13;1.90;;;17.30;44.80;;;;;;6376220;27;20080;-76
2021/01/22 10:31:25;;;;;;;1.88;1.30;;;16.90;46.10;;;;;;6376046;27;20050;-80
2021/01/22 10:34:26;;;;;;;2.65;1.83;;;16.50;46.10;;;;;;6376053;27;20050;-77
2021/01/22 10:37:26;;;;;;;2.10;1.60;;;16.50;47.70;;;;;;6376534;27;20360;-76
2021/01/22 10:40:28;;;;;;;1.80;1.60;;;16.40;46.30;;;;;;6375911;27;20030;-79
2021/01/22 10:43:29;;;;;;;1.90;1.48;;;16.70;45.50;;;;;;6375964;27;20038;-79
2021/01/22 10:46:31;;;;;;;1.98;1.88;;;16.80;45.10;;;;;;6376170;27;20063;-78
2021/01/22 10:49:32;;;;;;;;;;;16.90;45.10;;;;;;6375997;27;20072;-77
2021/01/22 10:52:32;;;;;;;3.03;2.60;;;17.00;45.70;;;;;;6375903;27;19907;-77
2021/01/22 10:55:33;;;;;;;1.85;1.75;;;16.90;44.50;;;;;;6375468;27;20051;-79
2021/01/22 10:58:34;;;;;;;3.78;1.92;;;17.00;45.10;;;;;;6375650;27;20016;-79
2021/01/22 11:01:34;;;;;;;2.15;1.90;;;17.30;44.90;;;;;;6375730;27;20047;-79
2021/01/22 11:04:35;;;;;;;1.58;1.40;;;17.50;43.50;;;;;;6356849;27;20066;-80
2021/01/22 11:07:36;;;;;;;1.88;1.58;;;16.90;44.50;;;;;;6356993;27;20034;-77
2021/01/22 11:10:37;;;;;;;1.83;1.52;;;16.70;44.80;;;;;;6375277;27;20069;-77
2021/01/22 11:13:37;;;;;;;1.67;1.30;;;16.80;44.70;;;;;;6375452;27;20027;-76
2021/01/22 11:16:38;;;;;;;4.38;1.65;;;16.80;44.60;;;;;;6375188;27;20035;-80
2021/01/22 11:19:38;;;;;;;1.90;1.70;;;16.70;45.20;;;;;;6357018;27;20019;-77
2021/01/22 11:22:39;;;;;;;2.95;2.60;;;16.60;45.10;;;;;;6374567;27;20019;-78
2021/01/22 11:25:40;;;;;;;3.38;1.70;;;16.40;45.80;;;;;;6356095;27;20023;-81
2021/01/22 11:28:41;;;;;;;2.47;1.67;;;15.80;46.10;;;;;;6375184;27;20034;-78
2021/01/22 11:31:41;;;;;;;3.88;2.90;;;15.40;48.10;;;;;;6374680;27;20530;-77
2021/01/22 11:34:42;;;;;;;1.42;1.35;;;15.10;48.70;;;;;;6374723;27;20046;-78
2021/01/22 11:37:47;;;;;;;2.75;2.53;;;14.80;49.50;;;;;;6374786;27;20102;-76
2021/01/22 11:40:48;;;;;;;2.72;2.38;;;14.40;49.60;;;;;;6357301;27;20100;-83
2021/01/22 11:43:48;;;;;;;3.13;2.22;;;14.20;52.00;;;;;;6374248;27;20027;-84
2021/01/22 11:46:49;;;;;;;3.78;2.38;;;14.00;53.20;;;;;;6374191;27;20011;-79
2021/01/22 11:49:49;;;;;;;4.40;3.10;;;13.80;55.30;;;;;;6374242;27;20024;-79
2021/01/22 11:52:50;;;;;;;8.27;5.30;;;13.70;56.10;;;;;;6374053;27;20148;-79
2021/01/22 11:55:51;;;;;;;3.25;2.90;;;13.60;58.20;;;;;;6374074;27;20525;-82
2021/01/22 11:58:51;;;;;;;2.92;2.50;;;13.60;86.00;;;;;;6373909;27;20023;-80
2021/01/22 12:01:52;;;;;;;3.92;3.53;;;13.60;61.00;;;;;;6374220;27;20023;-84
2021/01/22 12:04:53;;;;;;;2.42;2.10;;;;;;;;;;6373913;27;20066;-80
2021/01/22 12:07:54;;;;;;;2.72;2.30;;;13.90;66.60;;;;;;6373740;27;20038;-79
2021/01/22 12:10:54;;;;;;;5.75;5.25;;;14.10;69.00;;;;;;6373694;27;20031;-77
2021/01/22 12:13:56;;;;;;;5.88;3.72;;;14.20;69.10;;;;;;6373954;27;20394;-80
2021/01/22 12:16:57;;;;;;;3.15;2.30;;;13.90;68.60;;;;;;6373772;27;20046;-77
2021/01/22 12:19:57;;;;;;;2.20;2.10;;;14.30;68.60;;;;;;6373518;27;20023;-77
2021/01/22 12:22:58;;;;;;;3.85;2.47;;;14.00;67.80;;;;;;6373512;27;20043;-80
2021/01/22 12:26:00;;;;;;;2.13;1.90;;;14.00;68.60;;;;;;6373268;27;20055;-77
2021/01/22 12:29:00;;;;;;;2.72;1.80;;;13.70;68.60;;;;;;6373668;27;20372;-80
2021/01/22 12:32:01;;;;;;;3.00;1.90;;;13.70;70.10;;;;;;6373511;27;20037;-78
2021/01/22 12:35:02;;;;;;;1.73;1.63;;;13.60;70.00;;;;;;6373034;27;20365;-79
2021/01/22 12:38:03;;;;;;;1.85;1.75;;;13.60;61.50;;;;;;6373239;27;20049;-79
2021/01/22 12:41:05;;;;;;;2.50;1.90;;;13.50;62.50;;;;;;6373225;27;20126;-77
2021/01/22 12:44:06;;;;;;;2.45;2.25;;;13.50;63.20;;;;;;6373457;27;20066;-80
2021/01/22 12:47:06;;;;;;;2.13;1.70;;;13.50;63.00;;;;;;6373265;27;20030;-76
2021/01/22 12:50:08;;;;;;;2.90;2.42;;;13.40;64.90;;;;;;6373091;27;20368;-79
2021/01/22 12:53:08;;;;;;;2.85;2.15;;;13.30;65.90;;;;;;6373187;27;20031;-80
2021/01/22 12:56:09;;;;;;;2.10;1.90;;;13.20;66.70;;;;;;6373068;28;20453;-77
2021/01/22 12:59:09;;;;;;;2.20;2.00;;;13.00;65.20;;;;;;6372922;27;20102;-78
2021/01/22 13:02:10;;;;;;;2.53;1.98;;;12.90;65.30;;;;;;6373137;27;20024;-77
2021/01/22 13:05:15;;;;;;;1.95;1.73;;;12.80;66.00;;;;;;6373028;28;20048;-77
2021/01/22 13:08:15;;;;;;;3.33;2.00;;;12.80;66.40;;;;;;6373142;28;20084;-80
2021/01/22 13:11:16;;;;;;;2.83;2.08;;;12.70;65.40;;;;;;6373000;28;20531;-80
2021/01/22 13:14:16;;;;;;;4.18;2.45;;;12.70;65.20;;;;;;6372646;28;20031;-77
2021/01/22 13:17:17;;;;;;;6.38;2.75;;;12.60;66.10;;;;;;6372659;27;20071;-79
2021/01/22 13:20:18;;;;;;;3.58;2.50;;;12.60;66.80;;;;;;6372873;28;20023;-77
2021/01/22 13:23:18;;;;;;;5.75;3.45;;;12.50;67.30;;;;;;6373110;28;20039;-77
2021/01/22 13:26:19;;;;;;;2.92;2.38;;;12.50;67.90;;;;;;6372707;28;20019;-77
2021/01/22 13:29:20;;;;;;;4.60;2.17;;;12.50;67.60;;;;;;6372651;28;20030;-80
2021/01/22 13:32:21;;;;;;;4.38;2.20;;;12.30;65.50;;;;;;6372481;28;20148;-81
2021/01/22 13:35:21;;;;;;;2.08;1.90;;;12.30;66.70;;;;;;6372715;28;20039;-76
2021/01/22 13:38:22;;;;;;;3.00;2.17;;;12.30;68.00;;;;;;6372357;28;20026;-77
2021/01/22 13:41:23;;;;;;;2.33;2.13;;;12.30;69.40;;;;;;6372483;28;20030;-77
2021/01/22 13:44:23;;;;;;;2.67;2.25;;;12.10;70.10;;;;;;6372374;27;20027;-78
2021/01/22 13:47:24;;;;;;;3.40;2.15;;;12.10;70.70;;;;;;6374314;27;20015;-77
2021/01/22 13:50:24;;;;;;;5.43;2.97;;;12.00;71.40;;;;;;6377131;27;20103;-79
2021/01/22 13:53:25;;;;;;;3.95;2.78;;;12.00;72.40;;;;;;6376903;27;20015;-78
2021/01/22 13:56:26;;;;;;;3.85;2.33;;;12.00;71.40;;;;;;6377002;27;20080;-81
2021/01/22 13:59:26;;;;;;;3.03;2.50;;;12.00;72.70;;;;;;6377222;27;20472;-78
2021/01/22 14:02:27;;;;;;;3.63;2.22;;;11.90;74.00;;;;;;6377166;27;20023;-77
2021/01/22 14:05:27;;;;;;;4.43;2.30;;;11.70;75.10;;;;;;6376932;27;20051;-80
2021/01/22 14:08:28;;;;;;;3.67;2.20;;;11.50;76.60;;;;;;6376756;27;20031;-80
2021/01/22 14:11:28;;;;;;;3.35;2.47;;;11.40;77.50;;;;;;6376722;27;20023;-77
2021/01/22 14:14:29;;;;;;;4.57;2.70;;;11.10;78.80;;;;;;6376808;27;20034;-79
2021/01/22 14:17:30;;;;;;;3.20;2.33;;;11.00;79.80;;;;;;6376475;27;20031;-79
2021/01/22 14:20:30;;;;;;;3.13;2.22;;;10.90;80.20;;;;;;6376208;27;20019;-77
2021/01/22 14:23:31;;;;;;;2.75;2.22;;;10.80;81.60;;;;;;6376385;27;20023;-77
2021/01/22 14:26:31;;;;;;;4.82;2.70;;;10.60;82.20;;;;;;6376220;27;20094;-80
2021/01/22 14:29:32;;;;;;;2.53;2.05;;;10.50;82.90;;;;;;6376214;27;20015;-80
2021/01/22 14:32:33;;;;;;;2.95;2.30;;;10.50;83.30;;;;;;6376078;27;20102;-76
2021/01/22 14:35:33;;;;;;;3.90;2.20;;;10.30;83.90;;;;;;6358208;27;20109;-77
2021/01/22 14:38:34;;;;;;;3.95;2.50;;;10.30;84.90;;;;;;6376160;27;20050;-80
2021/01/22 14:41:34;;;;;;;4.65;2.35;;;10.20;85.20;;;;;;6376192;27;20437;-79
2021/01/22 14:44:35;;;;;;;5.88;2.67;;;10.10;86.40;;;;;;6375869;27;20442;-76
2021/01/22 14:47:36;;;;;;;4.68;2.95;;;10.00;87.40;;;;;;6375747;27;20026;-77
2021/01/22 14:50:36;;;;;;;5.10;2.25;;;10.00;88.00;;;;;;6376043;27;20456;-77
2021/01/22 14:53:37;;;;;;;2.65;2.00;;;9.90;88.60;;;;;;6375865;27;20030;-77
2021/01/22 14:56:38;;;;;;;3.38;2.50;;;9.80;88.70;;;;;;6375736;27;20127;-78
2021/01/22 14:59:38;;;;;;;3.65;2.60;;;9.80;89.20;;;;;;6375329;27;20027;-76
2021/01/22 15:02:39;;;;;;;2.88;2.30;;;9.70;89.40;;;;;;6357215;27;20011;-77
2021/01/22 15:05:40;;;;;;;5.22;2.60;;;9.70;89.80;;;;;;6375437;27;20041;-78
2021/01/22 15:08:42;;;;;;;3.22;2.50;;;9.60;89.80;;;;;;6375631;27;20102;-76
2021/01/22 15:11:43;;;;;;;2.30;2.10;;;9.60;90.00;;;;;;6375383;27;20032;-79
2021/01/22 15:14:44;;;;;;;2.95;2.55;;;9.70;90.10;;;;;;6374844;27;20073;-76
2021/01/22 15:17:44;;;;;;;3.40;3.10;;;9.70;90.30;;;;;;6375331;27;20129;-79
2021/01/22 15:20:45;;;;;;;2.72;2.47;;;9.60;90.40;;;;;;6374849;27;20019;-79
2021/01/22 15:23:45;;;;;;;6.22;3.92;;;9.60;90.10;;;;;;6374903;27;20031;-76
2021/01/22 15:26:46;;;;;;;4.47;2.58;;;9.60;89.60;;;;;;6375054;27;20143;-82
2021/01/22 15:29:47;;;;;;;2.75;2.40;;;9.50;88.80;;;;;;6375019;27;20104;-76
2021/01/22 15:32:48;;;;;;;3.55;2.38;;;9.50;88.70;;;;;;6374714;27;20624;-77
2021/01/22 15:35:49;;;;;;;5.45;2.60;;;9.40;88.20;;;;;;6374879;27;20053;-77
2021/01/22 15:38:50;;;;;;;3.50;2.85;;;9.30;89.00;;;;;;6355996;27;20707;-77
2021/01/22 15:41:50;;;;;;;4.35;2.67;;;9.20;89.50;;;;;;6374756;27;20019;-78
2021/01/22 15:44:51;;;;;;;1.85;1.65;;;9.20;89.60;;;;;;6374278;27;20033;-77
2021/01/22 15:47:51;;;;;;;2.45;2.10;;;9.10;89.90;;;;;;6374541;27;20128;-75
2021/01/22 15:50:52;;;;;;;2.92;1.90;;;9.00;90.20;;;;;;6374393;27;20372;-78